createdAt,value
2022-11-17T00:00:24.000Z,82.44
2022-11-17T00:01:24.000Z,82.64
2022-11-17T00:02:23.000Z,82.53
2022-11-17T00:03:23.000Z,82.57
2022-11-17T00:04:26.000Z,82.81
2022-11-17T00:05:24.000Z,82.94
2022-11-17T00:06:23.000Z,82.67
2022-11-17T00:07:23.000Z,83.04
2022-11-17T00:08:23.000Z,82.93
2022-11-17T00:09:24.000Z,82.77
2022-11-17T00:10:23.000Z,82.89
2022-11-17T00:11:23.000Z,82.86
2022-11-17T00:12:29.000Z,82.54
2022-11-17T00:13:29.000Z,82.33
2022-11-17T00:14:29.000Z,82.52
2022-11-17T00:15:24.000Z,82.29
2022-11-17T00:16:23.000Z,82.33
2022-11-17T00:17:23.000Z,82.41
2022-11-17T00:18:29.000Z,82.44
2022-11-17T00:19:29.000Z,82.71
2022-11-17T00:20:29.000Z,82.71
2022-11-17T00:21:27.000Z,82.69
2022-11-17T00:22:24.000Z,82.63
2022-11-17T00:23:24.000Z,82.45
2022-11-17T00:24:23.000Z,82.44
2022-11-17T00:25:24.000Z,82.19
2022-11-17T00:26:26.000Z,82.31
2022-11-17T00:27:23.000Z,82.50
2022-11-17T00:28:23.000Z,82.53
2022-11-17T00:29:23.000Z,82.51
2022-11-17T00:30:28.000Z,82.65
2022-11-17T00:31:30.000Z,82.61
2022-11-17T00:32:28.000Z,82.64
2022-11-17T00:33:28.000Z,82.60
2022-11-17T00:34:23.000Z,82.72
2022-11-17T00:35:23.000Z,82.89
2022-11-17T00:36:23.000Z,82.83
2022-11-17T00:37:24.000Z,82.74
2022-11-17T00:38:23.000Z,82.55
2022-11-17T00:39:23.000Z,82.50
2022-11-17T00:40:23.000Z,82.64
2022-11-17T00:41:23.000Z,82.60
2022-11-17T00:42:23.000Z,82.55
2022-11-17T00:43:23.000Z,82.66
2022-11-17T00:44:23.000Z,82.41
2022-11-17T00:45:23.000Z,82.59
2022-11-17T00:46:23.000Z,82.45
2022-11-17T00:47:23.000Z,82.56
2022-11-17T00:48:23.000Z,82.58
2022-11-17T00:49:26.000Z,82.77
2022-11-17T00:50:23.000Z,82.76
2022-11-17T00:51:23.000Z,82.84
2022-11-17T00:52:23.000Z,83.03
2022-11-17T00:53:23.000Z,82.92
2022-11-17T00:54:23.000Z,82.84
2022-11-17T00:55:23.000Z,82.99
2022-11-17T00:56:24.000Z,82.97
2022-11-17T00:57:23.000Z,83.16
2022-11-17T00:58:23.000Z,83.19
2022-11-17T00:59:23.000Z,83.38
2022-11-17T01:00:23.000Z,83.20
2022-11-17T01:01:23.000Z,83.32
2022-11-17T01:02:22.000Z,83.14
2022-11-17T01:03:22.000Z,83.03
2022-11-17T01:04:23.000Z,82.98
2022-11-17T01:05:23.000Z,83.20
2022-11-17T01:06:23.000Z,83.18
2022-11-17T01:07:23.000Z,83.03
2022-11-17T01:08:23.000Z,83.07
2022-11-17T01:09:22.000Z,83.12
2022-11-17T01:10:23.000Z,83.20
2022-11-17T01:11:23.000Z,83.12
2022-11-17T01:12:23.000Z,83.06
2022-11-17T01:13:22.000Z,83.13
2022-11-17T01:14:25.000Z,83.03
2022-11-17T01:15:23.000Z,83.13
2022-11-17T01:16:24.000Z,83.19
2022-11-17T01:17:23.000Z,83.18
2022-11-17T01:18:22.000Z,83.32
2022-11-17T01:19:23.000Z,83.41
2022-11-17T01:20:23.000Z,83.27
2022-11-17T01:21:25.000Z,83.02
2022-11-17T01:22:23.000Z,83.20
2022-11-17T01:23:23.000Z,83.05
2022-11-17T01:24:23.000Z,83.02
2022-11-17T01:25:23.000Z,83.09
2022-11-17T01:26:25.000Z,83.24
2022-11-17T01:27:23.000Z,83.27
2022-11-17T01:28:22.000Z,83.26
2022-11-17T01:29:22.000Z,83.33
2022-11-17T01:30:22.000Z,83.18
2022-11-17T01:31:35.000Z,83.14
2022-11-17T01:32:23.000Z,83.21
2022-11-17T01:33:22.000Z,83.08
2022-11-17T01:34:23.000Z,83.09
2022-11-17T01:35:22.000Z,83.22
2022-11-17T01:36:29.000Z,83.17
2022-11-17T01:37:22.000Z,83.15
2022-11-17T01:38:22.000Z,83.10
2022-11-17T01:39:25.000Z,82.91
2022-11-17T01:40:22.000Z,82.94
2022-11-17T01:41:25.000Z,83.14
2022-11-17T01:42:24.000Z,83.07
2022-11-17T01:43:34.000Z,82.98
2022-11-17T01:44:33.000Z,82.95
2022-11-17T01:45:23.000Z,82.99
2022-11-17T01:46:33.000Z,83.31
2022-11-17T01:47:46.000Z,83.38
2022-11-17T01:48:23.000Z,83.54
2022-11-17T01:49:26.000Z,83.51
2022-11-17T01:50:35.000Z,83.68
2022-11-17T01:51:23.000Z,83.90
2022-11-17T01:52:24.000Z,83.99
2022-11-17T01:53:24.000Z,83.96
2022-11-17T01:54:25.000Z,83.79
2022-11-17T01:55:31.000Z,83.87
2022-11-17T01:56:29.000Z,84.05
2022-11-17T01:57:30.000Z,83.78
2022-11-17T01:58:45.000Z,83.83
2022-11-17T01:59:33.000Z,83.98
2022-11-17T02:00:23.000Z,83.90
2022-11-17T02:01:23.000Z,83.78
2022-11-17T02:02:23.000Z,83.78
2022-11-17T02:03:25.000Z,83.76
2022-11-17T02:04:31.000Z,83.72
2022-11-17T02:05:36.000Z,83.78
2022-11-17T02:06:34.000Z,83.95
2022-11-17T02:07:25.000Z,83.95
2022-11-17T02:08:27.000Z,84.10
2022-11-17T02:09:24.000Z,84.13
2022-11-17T02:10:23.000Z,84.25
2022-11-17T02:11:24.000Z,84.12
2022-11-17T02:12:25.000Z,84.14
2022-11-17T02:13:23.000Z,84.10
2022-11-17T02:14:23.000Z,84.10
2022-11-17T02:15:24.000Z,84.24
2022-11-17T02:16:23.000Z,84.21
2022-11-17T02:17:32.000Z,84.12
2022-11-17T02:18:23.000Z,84.14
2022-11-17T02:19:26.000Z,84.09
2022-11-17T02:20:34.000Z,84.05
2022-11-17T02:21:41.000Z,84.21
2022-11-17T02:22:33.000Z,84.17
2022-11-17T02:23:33.000Z,84.17
2022-11-17T02:24:46.000Z,84.05
2022-11-17T02:25:33.000Z,84.05
2022-11-17T02:26:46.000Z,84.14
2022-11-17T02:27:44.000Z,84.15
2022-11-17T02:28:29.000Z,84.07
2022-11-17T02:29:35.000Z,84.10
2022-11-17T02:30:32.000Z,84.01
2022-11-17T02:31:34.000Z,84.04
2022-11-17T02:32:32.000Z,84.09
2022-11-17T02:33:36.000Z,83.97
2022-11-17T02:34:36.000Z,84.04
2022-11-17T02:35:34.000Z,84.15
2022-11-17T02:36:46.000Z,84.05
2022-11-17T02:37:36.000Z,83.96
2022-11-17T02:38:38.000Z,83.93
2022-11-17T02:39:31.000Z,83.91
2022-11-17T02:40:29.000Z,83.70
2022-11-17T02:41:29.000Z,83.69
2022-11-17T02:42:45.000Z,83.76
2022-11-17T02:43:36.000Z,83.85
2022-11-17T02:44:45.000Z,83.76
2022-11-17T02:45:28.000Z,83.64
2022-11-17T02:46:26.000Z,83.75
2022-11-17T02:47:28.000Z,83.79
2022-11-17T02:48:31.000Z,83.79
2022-11-17T02:49:32.000Z,83.72
2022-11-17T02:50:25.000Z,83.55
2022-11-17T02:51:23.000Z,83.57
2022-11-17T02:52:25.000Z,83.72
2022-11-17T02:53:25.000Z,83.53
2022-11-17T02:54:27.000Z,83.59
2022-11-17T02:55:23.000Z,83.56
2022-11-17T02:56:23.000Z,83.58
2022-11-17T02:57:41.000Z,83.56
2022-11-17T02:58:23.000Z,83.81
2022-11-17T02:59:32.000Z,83.66
2022-11-17T03:00:23.000Z,83.69
2022-11-17T03:01:40.000Z,83.67
2022-11-17T03:02:36.000Z,83.62
2022-11-17T03:03:34.000Z,83.52
2022-11-17T03:04:33.000Z,83.52
2022-11-17T03:05:33.000Z,83.52
2022-11-17T03:06:45.000Z,83.57
2022-11-17T03:07:45.000Z,83.50
2022-11-17T03:08:43.000Z,83.53
2022-11-17T03:09:43.000Z,83.64
2022-11-17T03:10:33.000Z,83.49
2022-11-17T03:11:33.000Z,83.55
2022-11-17T03:12:32.000Z,83.66
2022-11-17T03:13:33.000Z,83.81
2022-11-17T03:14:38.000Z,83.97
2022-11-17T03:15:37.000Z,84.20
2022-11-17T03:16:34.000Z,84.40
2022-11-17T03:17:33.000Z,84.61
2022-11-17T03:18:32.000Z,85.02
2022-11-17T03:19:39.000Z,84.99
2022-11-17T03:20:33.000Z,84.97
2022-11-17T03:21:30.000Z,85.11
2022-11-17T03:22:31.000Z,85.43
2022-11-17T03:23:36.000Z,85.20
2022-11-17T03:24:28.000Z,85.02
2022-11-17T03:25:25.000Z,85.10
2022-11-17T03:26:28.000Z,85.19
2022-11-17T03:27:30.000Z,85.23
2022-11-17T03:28:27.000Z,85.58
2022-11-17T03:29:29.000Z,85.98
2022-11-17T03:30:26.000Z,85.64
2022-11-17T03:31:25.000Z,85.57
2022-11-17T03:32:26.000Z,85.55
2022-11-17T03:33:25.000Z,85.56
2022-11-17T03:34:26.000Z,85.72
2022-11-17T03:35:29.000Z,85.50
2022-11-17T03:36:32.000Z,85.58
2022-11-17T03:37:26.000Z,85.51
2022-11-17T03:38:27.000Z,85.68
2022-11-17T03:39:43.000Z,85.94
2022-11-17T03:40:27.000Z,85.99
2022-11-17T03:41:26.000Z,85.90
2022-11-17T03:42:27.000Z,86.05
2022-11-17T03:43:25.000Z,85.78
2022-11-17T03:44:26.000Z,85.93
2022-11-17T03:45:30.000Z,85.94
2022-11-17T03:46:25.000Z,85.86
2022-11-17T03:47:26.000Z,85.73
2022-11-17T03:48:33.000Z,85.81
2022-11-17T03:49:41.000Z,85.97
2022-11-17T03:50:29.000Z,85.69
2022-11-17T03:51:28.000Z,85.74
2022-11-17T03:52:25.000Z,85.97
2022-11-17T03:53:23.000Z,85.75
2022-11-17T03:54:23.000Z,85.85
2022-11-17T03:55:28.000Z,85.94
2022-11-17T03:56:43.000Z,86.04
2022-11-17T03:57:54.000Z,86.13
2022-11-17T03:58:29.000Z,86.15
2022-11-17T03:59:30.000Z,86.29
2022-11-17T04:00:24.000Z,86.18
2022-11-17T04:01:26.000Z,86.29
2022-11-17T04:02:25.000Z,86.40
2022-11-17T04:03:28.000Z,86.67
2022-11-17T04:04:23.000Z,86.59
2022-11-17T04:05:23.000Z,86.64
2022-11-17T04:06:23.000Z,86.48
2022-11-17T04:07:23.000Z,86.59
2022-11-17T04:08:28.000Z,86.58
2022-11-17T04:09:23.000Z,86.50
2022-11-17T04:10:25.000Z,86.66
2022-11-17T04:11:29.000Z,86.49
2022-11-17T04:12:28.000Z,86.69
2022-11-17T04:13:28.000Z,86.41
2022-11-17T04:14:28.000Z,86.68
2022-11-17T04:15:28.000Z,86.50
2022-11-17T04:16:23.000Z,86.40
2022-11-17T04:17:23.000Z,86.66
2022-11-17T04:18:24.000Z,86.15
2022-11-17T04:19:23.000Z,86.21
2022-11-17T04:20:23.000Z,86.21
2022-11-17T04:21:23.000Z,86.16
2022-11-17T04:22:23.000Z,86.00
2022-11-17T04:23:24.000Z,86.03
2022-11-17T04:24:23.000Z,86.09
2022-11-17T04:25:44.000Z,86.08
2022-11-17T04:26:28.000Z,86.07
2022-11-17T04:27:28.000Z,86.25
2022-11-17T04:28:30.000Z,86.24
2022-11-17T04:29:23.000Z,86.47
2022-11-17T04:30:23.000Z,86.58
2022-11-17T04:31:25.000Z,86.68
2022-11-17T04:32:23.000Z,86.58
2022-11-17T04:33:23.000Z,86.88
2022-11-17T04:34:23.000Z,86.78
2022-11-17T04:35:23.000Z,86.99
2022-11-17T04:36:25.000Z,87.13
2022-11-17T04:37:23.000Z,86.97
2022-11-17T04:38:23.000Z,87.35
2022-11-17T04:39:23.000Z,87.27
2022-11-17T04:40:23.000Z,87.66
2022-11-17T04:41:28.000Z,87.66
2022-11-17T04:42:23.000Z,87.53
2022-11-17T04:43:23.000Z,87.55
2022-11-17T04:44:26.000Z,87.75
2022-11-17T04:45:23.000Z,87.62
2022-11-17T04:46:24.000Z,87.97
2022-11-17T04:47:23.000Z,87.67
2022-11-17T04:48:23.000Z,87.61
2022-11-17T04:49:24.000Z,87.70
2022-11-17T04:50:23.000Z,87.44
2022-11-17T04:51:24.000Z,87.48
2022-11-17T04:52:23.000Z,87.65
2022-11-17T04:53:23.000Z,87.59
2022-11-17T04:54:26.000Z,87.57
2022-11-17T04:55:23.000Z,87.76
2022-11-17T04:56:24.000Z,87.92
2022-11-17T04:57:23.000Z,87.90
2022-11-17T04:58:23.000Z,88.10
2022-11-17T04:59:23.000Z,88.11
2022-11-17T05:00:22.000Z,87.79
2022-11-17T05:01:25.000Z,87.88
2022-11-17T05:02:22.000Z,87.79
2022-11-17T05:03:23.000Z,88.09
2022-11-17T05:04:28.000Z,88.36
2022-11-17T05:05:22.000Z,88.24
2022-11-17T05:06:31.000Z,88.38
2022-11-17T05:07:23.000Z,88.53
2022-11-17T05:08:22.000Z,88.60
2022-11-17T05:09:22.000Z,88.51
2022-11-17T05:10:28.000Z,88.50
2022-11-17T05:11:28.000Z,88.72
2022-11-17T05:12:28.000Z,88.64
2022-11-17T05:13:25.000Z,88.88
2022-11-17T05:14:24.000Z,88.99
2022-11-17T05:15:37.000Z,89.21
2022-11-17T05:16:28.000Z,88.93
2022-11-17T05:17:22.000Z,89.16
2022-11-17T05:18:22.000Z,89.05
2022-11-17T05:19:25.000Z,89.12
2022-11-17T05:20:22.000Z,89.24
2022-11-17T05:21:23.000Z,89.29
2022-11-17T05:22:28.000Z,89.19
2022-11-17T05:23:28.000Z,89.38
2022-11-17T05:24:22.000Z,89.33
2022-11-17T05:25:22.000Z,89.42
2022-11-17T05:26:28.000Z,89.41
2022-11-17T05:27:23.000Z,89.36
2022-11-17T05:28:22.000Z,89.33
2022-11-17T05:29:22.000Z,89.24
2022-11-17T05:30:22.000Z,89.33
2022-11-17T05:31:24.000Z,89.56
2022-11-17T05:32:22.000Z,89.67
2022-11-17T05:33:22.000Z,89.68
2022-11-17T05:34:22.000Z,89.44
2022-11-17T05:35:23.000Z,89.53
2022-11-17T05:36:24.000Z,89.45
2022-11-17T05:37:22.000Z,89.47
2022-11-17T05:38:22.000Z,89.23
2022-11-17T05:39:22.000Z,89.52
2022-11-17T05:40:22.000Z,89.32
2022-11-17T05:41:23.000Z,89.34
2022-11-17T05:42:23.000Z,89.24
2022-11-17T05:43:23.000Z,89.45
2022-11-17T05:44:23.000Z,89.47
2022-11-17T05:45:22.000Z,89.51
2022-11-17T05:46:23.000Z,89.32
2022-11-17T05:47:22.000Z,89.26
2022-11-17T05:48:23.000Z,89.43
2022-11-17T05:49:22.000Z,89.46
2022-11-17T05:50:22.000Z,89.58
2022-11-17T05:51:23.000Z,89.52
2022-11-17T05:52:22.000Z,89.44
2022-11-17T05:53:23.000Z,89.43
2022-11-17T05:54:22.000Z,89.38
2022-11-17T05:55:23.000Z,89.36
2022-11-17T05:56:33.000Z,89.45
2022-11-17T05:57:28.000Z,89.41
2022-11-17T05:58:29.000Z,89.32
2022-11-17T05:59:40.000Z,89.54
2022-11-17T06:00:23.000Z,89.60
2022-11-17T06:01:23.000Z,89.63
2022-11-17T06:02:28.000Z,89.66
2022-11-17T06:03:28.000Z,89.77
2022-11-17T06:04:23.000Z,89.90
2022-11-17T06:05:24.000Z,89.88
2022-11-17T06:06:24.000Z,89.79
2022-11-17T06:07:23.000Z,89.92
2022-11-17T06:08:24.000Z,90.05
2022-11-17T06:09:25.000Z,90.01
2022-11-17T06:10:23.000Z,89.92
2022-11-17T06:11:23.000Z,90.00
2022-11-17T06:12:23.000Z,90.02
2022-11-17T06:13:27.000Z,90.13
2022-11-17T06:14:23.000Z,90.09
2022-11-17T06:15:23.000Z,90.05
2022-11-17T06:16:26.000Z,90.07
2022-11-17T06:17:33.000Z,90.08
2022-11-17T06:18:27.000Z,90.12
2022-11-17T06:19:35.000Z,90.34
2022-11-17T06:20:26.000Z,90.16
2022-11-17T06:21:24.000Z,90.10
2022-11-17T06:22:25.000Z,90.30
2022-11-17T06:23:27.000Z,90.24
2022-11-17T06:24:23.000Z,90.25
2022-11-17T06:25:23.000Z,90.29
2022-11-17T06:26:23.000Z,90.35
2022-11-17T06:27:25.000Z,90.34
2022-11-17T06:28:26.000Z,90.58
2022-11-17T06:29:24.000Z,90.25
2022-11-17T06:30:23.000Z,90.16
2022-11-17T06:31:24.000Z,90.48
2022-11-17T06:32:23.000Z,90.48
2022-11-17T06:33:28.000Z,90.45
2022-11-17T06:34:24.000Z,90.47
2022-11-17T06:35:23.000Z,90.46
2022-11-17T06:36:23.000Z,90.66
2022-11-17T06:37:23.000Z,90.67
2022-11-17T06:38:23.000Z,90.51
2022-11-17T06:39:23.000Z,90.78
2022-11-17T06:40:23.000Z,90.87
2022-11-17T06:41:23.000Z,90.76
2022-11-17T06:42:38.000Z,90.75
2022-11-17T06:43:23.000Z,90.63
2022-11-17T06:44:23.000Z,90.66
2022-11-17T06:45:23.000Z,90.96
2022-11-17T06:46:23.000Z,90.76
2022-11-17T06:47:22.000Z,90.96
2022-11-17T06:48:25.000Z,90.76
2022-11-17T06:49:22.000Z,90.77
2022-11-17T06:50:23.000Z,90.73
2022-11-17T06:51:22.000Z,90.85
2022-11-17T06:52:23.000Z,90.90
2022-11-17T06:53:24.000Z,90.96
2022-11-17T06:54:22.000Z,90.79
2022-11-17T06:55:23.000Z,90.66
2022-11-17T06:56:23.000Z,90.79
2022-11-17T06:57:22.000Z,91.10
2022-11-17T06:58:23.000Z,91.09
2022-11-17T06:59:22.000Z,90.95
2022-11-17T07:00:23.000Z,90.97
2022-11-17T07:01:22.000Z,90.94
2022-11-17T07:02:22.000Z,90.78
2022-11-17T07:03:22.000Z,90.99
2022-11-17T07:04:22.000Z,91.15
2022-11-17T07:05:22.000Z,91.19
2022-11-17T07:06:22.000Z,91.11
2022-11-17T07:07:22.000Z,91.07
2022-11-17T07:08:22.000Z,91.22
2022-11-17T07:09:24.000Z,91.10
2022-11-17T07:10:23.000Z,91.04
2022-11-17T07:11:22.000Z,91.15
2022-11-17T07:12:22.000Z,91.14
2022-11-17T07:13:23.000Z,90.96
2022-11-17T07:14:22.000Z,91.09
2022-11-17T07:15:23.000Z,90.93
2022-11-17T07:16:22.000Z,91.05
2022-11-17T07:17:22.000Z,91.16
2022-11-17T07:18:22.000Z,91.03
2022-11-17T07:19:22.000Z,91.05
2022-11-17T07:20:22.000Z,91.11
2022-11-17T07:21:22.000Z,91.16
2022-11-17T07:22:22.000Z,90.99
2022-11-17T07:23:22.000Z,91.11
2022-11-17T07:24:22.000Z,91.01
2022-11-17T07:25:22.000Z,90.86
2022-11-17T07:26:22.000Z,90.83
2022-11-17T07:27:22.000Z,90.77
2022-11-17T07:28:23.000Z,90.92
2022-11-17T07:29:24.000Z,90.83
2022-11-17T07:30:23.000Z,90.88
2022-11-17T07:31:22.000Z,90.77
2022-11-17T07:32:22.000Z,90.72
2022-11-17T07:33:22.000Z,90.76
2022-11-17T07:34:22.000Z,90.82
2022-11-17T07:35:22.000Z,90.79
2022-11-17T07:36:22.000Z,90.61
2022-11-17T07:37:22.000Z,90.61
2022-11-17T07:38:22.000Z,90.59
2022-11-17T07:39:22.000Z,90.70
2022-11-17T07:40:22.000Z,90.91
2022-11-17T07:41:22.000Z,90.71
2022-11-17T07:42:22.000Z,90.82
2022-11-17T07:43:22.000Z,90.72
2022-11-17T07:44:23.000Z,90.74
2022-11-17T07:45:44.000Z,90.75
2022-11-17T07:47:08.000Z,90.68
2022-11-17T07:47:58.000Z,90.97
2022-11-17T07:48:22.000Z,91.14
2022-11-17T07:49:23.000Z,90.86
2022-11-17T07:50:23.000Z,90.98
2022-11-17T07:51:22.000Z,90.61
2022-11-17T07:52:30.000Z,90.64
2022-11-17T07:53:22.000Z,90.44
2022-11-17T07:54:22.000Z,90.53
2022-11-17T07:55:23.000Z,90.48
2022-11-17T07:56:22.000Z,90.73
2022-11-17T07:57:23.000Z,90.88
2022-11-17T07:58:23.000Z,90.36
2022-11-17T07:59:22.000Z,90.27
2022-11-17T08:00:23.000Z,90.24
2022-11-17T08:01:25.000Z,90.44
2022-11-17T08:02:22.000Z,90.21
2022-11-17T08:03:22.000Z,90.48
2022-11-17T08:04:22.000Z,90.81
2022-11-17T08:05:24.000Z,90.51
2022-11-17T08:06:23.000Z,90.21
2022-11-17T08:07:22.000Z,90.05
2022-11-17T08:08:22.000Z,90.07
2022-11-17T08:09:22.000Z,89.81
2022-11-17T08:10:26.000Z,89.86
2022-11-17T08:11:22.000Z,89.87
2022-11-17T08:12:22.000Z,89.73
2022-11-17T08:13:23.000Z,89.85
2022-11-17T08:14:22.000Z,89.77
2022-11-17T08:15:22.000Z,89.79
2022-11-17T08:16:25.000Z,89.73
2022-11-17T08:17:22.000Z,89.69
2022-11-17T08:18:23.000Z,89.63
2022-11-17T08:19:22.000Z,89.68
2022-11-17T08:20:24.000Z,89.68
2022-11-17T08:21:23.000Z,89.62
2022-11-17T08:22:22.000Z,89.49
2022-11-17T08:23:22.000Z,89.36
2022-11-17T08:24:22.000Z,89.29
2022-11-17T08:25:24.000Z,89.37
2022-11-17T08:26:23.000Z,89.25
2022-11-17T08:27:23.000Z,89.09
2022-11-17T08:28:22.000Z,88.94
2022-11-17T08:29:23.000Z,88.95
2022-11-17T08:30:24.000Z,89.04
2022-11-17T08:31:22.000Z,88.98
2022-11-17T08:32:22.000Z,89.02
2022-11-17T08:33:22.000Z,88.82
2022-11-17T08:34:22.000Z,88.88
2022-11-17T08:35:23.000Z,88.66
2022-11-17T08:36:22.000Z,88.55
2022-11-17T08:37:22.000Z,88.58
2022-11-17T08:38:27.000Z,88.33
2022-11-17T08:39:22.000Z,88.15
2022-11-17T08:40:23.000Z,88.17
2022-11-17T08:41:23.000Z,88.08
2022-11-17T08:42:22.000Z,88.03
2022-11-17T08:43:23.000Z,88.08
2022-11-17T08:44:22.000Z,88.19
2022-11-17T08:45:23.000Z,88.18
2022-11-17T08:46:23.000Z,88.08
2022-11-17T08:47:22.000Z,88.06
2022-11-17T08:48:22.000Z,88.06
2022-11-17T08:49:22.000Z,88.11
2022-11-17T08:50:23.000Z,87.96
2022-11-17T08:51:23.000Z,87.86
2022-11-17T08:52:22.000Z,87.86
2022-11-17T08:53:22.000Z,87.89
2022-11-17T08:54:22.000Z,87.97
2022-11-17T08:55:24.000Z,88.09
2022-11-17T08:56:22.000Z,87.97
2022-11-17T08:57:22.000Z,87.81
2022-11-17T08:58:22.000Z,87.70
2022-11-17T08:59:23.000Z,87.50
2022-11-17T09:00:22.000Z,87.31
2022-11-17T09:01:22.000Z,87.47
2022-11-17T09:02:23.000Z,87.24
2022-11-17T09:03:23.000Z,87.42
2022-11-17T09:04:23.000Z,87.30
2022-11-17T09:05:23.000Z,86.70
2022-11-17T09:06:23.000Z,86.25
2022-11-17T09:07:23.000Z,86.02
2022-11-17T09:08:23.000Z,85.98
2022-11-17T09:09:23.000Z,85.59
2022-11-17T09:10:23.000Z,85.02
2022-11-17T09:11:23.000Z,84.26
2022-11-17T09:12:22.000Z,84.48
2022-11-17T09:13:23.000Z,84.85
2022-11-17T09:14:23.000Z,83.90
2022-11-17T09:15:23.000Z,83.95
2022-11-17T09:16:24.000Z,84.53
2022-11-17T09:17:23.000Z,83.35
2022-11-17T09:18:23.000Z,84.24
2022-11-17T09:19:23.000Z,84.29
2022-11-17T09:20:23.000Z,84.03
2022-11-17T09:21:24.000Z,84.09
2022-11-17T09:22:23.000Z,82.96
2022-11-17T09:23:23.000Z,83.74
2022-11-17T09:24:25.000Z,83.79
2022-11-17T09:25:23.000Z,83.64
2022-11-17T09:26:23.000Z,83.87
2022-11-17T09:27:23.000Z,83.71
2022-11-17T09:28:23.000Z,83.88
2022-11-17T09:29:23.000Z,83.84
2022-11-17T09:30:23.000Z,84.08
2022-11-17T09:31:23.000Z,83.89
2022-11-17T09:32:22.000Z,83.54
2022-11-17T09:33:23.000Z,83.67
2022-11-17T09:34:23.000Z,84.20
2022-11-17T09:35:23.000Z,83.48
2022-11-17T09:36:22.000Z,81.04
2022-11-17T09:37:25.000Z,81.08
2022-11-17T09:38:23.000Z,81.77
2022-11-17T09:39:22.000Z,81.62
2022-11-17T09:40:22.000Z,80.68
2022-11-17T09:41:42.000Z,81.29
2022-11-17T09:42:23.000Z,81.74
2022-11-17T09:43:28.000Z,81.19
2022-11-17T09:44:33.000Z,81.25
2022-11-17T09:45:32.000Z,81.22
2022-11-17T09:46:43.000Z,82.34
2022-11-17T09:47:33.000Z,82.47
2022-11-17T09:48:38.000Z,82.52
2022-11-17T09:49:33.000Z,82.88
2022-11-17T09:50:29.000Z,82.90
2022-11-17T09:51:25.000Z,83.13
2022-11-17T09:52:41.000Z,83.47
2022-11-17T09:53:43.000Z,84.09
2022-11-17T09:54:35.000Z,84.69
2022-11-17T09:55:30.000Z,84.35
2022-11-17T09:56:25.000Z,84.65
2022-11-17T09:57:33.000Z,85.08
2022-11-17T09:58:43.000Z,84.70
2022-11-17T09:59:26.000Z,84.90
2022-11-17T10:00:23.000Z,85.35
2022-11-17T10:01:26.000Z,85.76
2022-11-17T10:02:23.000Z,86.27
2022-11-17T10:03:41.000Z,86.14
2022-11-17T10:04:27.000Z,86.60
2022-11-17T10:05:29.000Z,87.14
2022-11-17T10:06:25.000Z,86.68
2022-11-17T10:07:23.000Z,86.90
2022-11-17T10:08:33.000Z,87.15
2022-11-17T10:09:35.000Z,87.56
2022-11-17T10:10:38.000Z,87.47
2022-11-17T10:11:31.000Z,87.69
2022-11-17T10:12:32.000Z,88.14
2022-11-17T10:13:30.000Z,87.75
2022-11-17T10:14:26.000Z,88.65
2022-11-17T10:15:28.000Z,89.11
2022-11-17T10:16:23.000Z,89.30
2022-11-17T10:17:23.000Z,90.30
2022-11-17T10:18:23.000Z,89.84
2022-11-17T10:19:26.000Z,89.47
2022-11-17T10:20:23.000Z,89.49
2022-11-17T10:21:23.000Z,89.59
2022-11-17T10:22:32.000Z,89.43
2022-11-17T10:23:32.000Z,89.37
2022-11-17T10:24:32.000Z,89.63
2022-11-17T10:25:33.000Z,89.79
2022-11-17T10:26:23.000Z,90.21
2022-11-17T10:27:25.000Z,90.21
2022-11-17T10:28:29.000Z,90.03
2022-11-17T10:29:23.000Z,90.90
2022-11-17T10:30:23.000Z,90.28
2022-11-17T10:31:23.000Z,90.04
2022-11-17T10:32:24.000Z,90.43
2022-11-17T10:33:45.000Z,90.60
2022-11-17T10:34:32.000Z,90.48
2022-11-17T10:35:29.000Z,91.38
2022-11-17T10:36:28.000Z,91.54
2022-11-17T10:37:27.000Z,91.42
2022-11-17T10:38:26.000Z,91.95
2022-11-17T10:39:30.000Z,92.06
2022-11-17T10:40:25.000Z,92.39
2022-11-17T10:41:31.000Z,92.75
2022-11-17T10:42:24.000Z,92.72
2022-11-17T10:43:26.000Z,93.56
2022-11-17T10:44:25.000Z,92.56
2022-11-17T10:45:22.000Z,88.91
2022-11-17T10:46:22.000Z,89.43
2022-11-17T10:47:29.000Z,90.02
2022-11-17T10:48:34.000Z,90.04
2022-11-17T10:49:30.000Z,89.97
2022-11-17T10:50:24.000Z,90.63
2022-11-17T10:51:25.000Z,90.16
2022-11-17T10:52:22.000Z,90.11
2022-11-17T10:53:29.000Z,90.44
2022-11-17T10:54:22.000Z,89.88
2022-11-17T10:55:28.000Z,90.46
2022-11-17T10:56:23.000Z,90.85
2022-11-17T10:57:23.000Z,90.67
2022-11-17T10:58:25.000Z,90.50
2022-11-17T10:59:42.000Z,90.05
2022-11-17T11:00:31.000Z,89.86
2022-11-17T11:01:31.000Z,90.12
2022-11-17T11:02:42.000Z,90.53
2022-11-17T11:03:27.000Z,90.45
2022-11-17T11:04:29.000Z,90.57
2022-11-17T11:05:23.000Z,90.13
2022-11-17T11:06:26.000Z,89.66
2022-11-17T11:07:23.000Z,89.50
2022-11-17T11:08:44.000Z,90.21
2022-11-17T11:09:25.000Z,88.98
2022-11-17T11:10:31.000Z,88.55
2022-11-17T11:11:36.000Z,88.80
2022-11-17T11:12:35.000Z,89.37
2022-11-17T11:13:34.000Z,89.60
2022-11-17T11:14:47.000Z,89.98
2022-11-17T11:15:27.000Z,89.36
2022-11-17T11:16:24.000Z,88.92
2022-11-17T11:17:26.000Z,88.49
2022-11-17T11:18:27.000Z,88.21
2022-11-17T11:19:23.000Z,88.52
2022-11-17T11:20:32.000Z,89.12
2022-11-17T11:21:43.000Z,89.46
2022-11-17T11:22:45.000Z,89.53
2022-11-17T11:23:49.000Z,89.17
2022-11-17T11:24:37.000Z,89.35
2022-11-17T11:25:39.000Z,89.30
2022-11-17T11:26:33.000Z,88.81
2022-11-17T11:27:56.000Z,89.47
2022-11-17T11:28:34.000Z,89.48
2022-11-17T11:29:33.000Z,90.04
2022-11-17T11:30:23.000Z,90.02
2022-11-17T11:31:46.000Z,90.14
2022-11-17T11:32:35.000Z,89.28
2022-11-17T11:33:49.000Z,89.92
2022-11-17T11:34:42.000Z,90.11
2022-11-17T11:35:46.000Z,89.78
2022-11-17T11:36:32.000Z,90.15
2022-11-17T11:37:32.000Z,90.58
2022-11-17T11:38:48.000Z,90.63
2022-11-17T11:39:37.000Z,89.95
2022-11-17T11:40:29.000Z,90.09
2022-11-17T11:41:47.000Z,90.42
2022-11-17T11:42:39.000Z,90.42
2022-11-17T11:43:45.000Z,90.53
2022-11-17T11:44:37.000Z,89.40
2022-11-17T11:45:36.000Z,90.12
2022-11-17T11:46:40.000Z,89.45
2022-11-17T11:47:49.000Z,89.33
2022-11-17T11:48:29.000Z,89.33
2022-11-17T11:49:32.000Z,89.85
2022-11-17T11:50:30.000Z,89.93
2022-11-17T11:51:32.000Z,90.35
2022-11-17T11:52:31.000Z,90.59
2022-11-17T11:53:28.000Z,90.02
2022-11-17T11:54:32.000Z,89.56
2022-11-17T11:55:32.000Z,89.86
2022-11-17T11:56:32.000Z,90.20
2022-11-17T11:57:37.000Z,89.81
2022-11-17T11:58:23.000Z,89.11
2022-11-17T11:59:36.000Z,89.68
2022-11-17T12:00:22.000Z,89.79
2022-11-17T12:01:24.000Z,90.11
2022-11-17T12:02:32.000Z,90.50
2022-11-17T12:03:30.000Z,89.82
2022-11-17T12:04:43.000Z,89.14
2022-11-17T12:05:32.000Z,89.06
2022-11-17T12:06:38.000Z,89.50
2022-11-17T12:07:40.000Z,89.49
2022-11-17T12:08:37.000Z,89.56
2022-11-17T12:09:36.000Z,89.88
2022-11-17T12:10:44.000Z,89.25
2022-11-17T12:11:29.000Z,89.31
2022-11-17T12:12:31.000Z,89.95
2022-11-17T12:13:23.000Z,89.15
2022-11-17T12:14:23.000Z,89.00
2022-11-17T12:15:34.000Z,88.31
2022-11-17T12:16:29.000Z,87.62
2022-11-17T12:17:24.000Z,88.72
2022-11-17T12:18:30.000Z,88.78
2022-11-17T12:19:50.000Z,88.82
2022-11-17T12:20:32.000Z,88.08
2022-11-17T12:21:24.000Z,88.26
2022-11-17T12:22:44.000Z,88.02
2022-11-17T12:23:33.000Z,87.68
2022-11-17T12:24:39.000Z,88.33
2022-11-17T12:25:28.000Z,88.26
2022-11-17T12:26:28.000Z,88.03
2022-11-17T12:27:32.000Z,88.23
2022-11-17T12:28:29.000Z,87.86
2022-11-17T12:29:27.000Z,87.64
2022-11-17T12:30:32.000Z,87.59
2022-11-17T12:31:45.000Z,86.99
2022-11-17T12:32:32.000Z,86.37
2022-11-17T12:33:42.000Z,86.01
2022-11-17T12:34:28.000Z,86.51
2022-11-17T12:35:28.000Z,86.34
2022-11-17T12:36:37.000Z,86.47
2022-11-17T12:37:25.000Z,87.01
2022-11-17T12:38:37.000Z,86.48
2022-11-17T12:39:32.000Z,86.04
2022-11-17T12:40:42.000Z,85.91
2022-11-17T12:41:32.000Z,86.41
2022-11-17T12:42:23.000Z,86.60
2022-11-17T12:43:24.000Z,86.58
2022-11-17T12:44:45.000Z,87.07
2022-11-17T12:45:22.000Z,87.11
2022-11-17T12:46:24.000Z,87.21
2022-11-17T12:47:25.000Z,86.82
2022-11-17T12:48:28.000Z,86.17
2022-11-17T12:49:39.000Z,86.52
2022-11-17T12:50:39.000Z,85.97
2022-11-17T12:51:50.000Z,86.50
2022-11-17T12:52:35.000Z,86.45